Main page
METAR-TAF:

METAR-TAF

Airports :

Bric della Croce

Turin, Italy

latitude: 45-02N, longitude: 007-44E, elevation: 709 m

Current weather observation

The report was made 46 minutes ago, at 08:55 UTC
Calm wind
Temperature 10°C
Humidity 100%
Pressure 1004 hPa
Visibility: 0100 m
light rain, fog

METAR: LIMK 190855Z 00000KT 0100 -RA FG VV001 10/10 Q1004

Time: 11:41 (09:41 UTC)


TAF: missing

Weather observations and forecasts of more than 4000 airports (METAR and TAF reports).

The available stations are represented by yellow and red dots on the map.

Hover mouse over dot to see the name of the station.

Then click to see weather observations and forecasts.

To change the map : click on the green buttons with a black cross to zoom in, on the green button with a dash to zoom out, or on the green arrows for adjacent maps.


METAR-TAF: